createdAt,value
2022-10-09T00:01:24.526Z,13.07
2022-10-09T00:06:32.607Z,14.23
2022-10-09T00:11:35.452Z,14.90
2022-10-09T00:16:38.208Z,13.50
2022-10-09T00:21:41.011Z,13.67
2022-10-09T00:26:43.686Z,13.03
2022-10-09T00:31:46.473Z,13.77
2022-10-09T00:36:49.222Z,13.30
2022-10-09T00:41:51.986Z,12.73
2022-10-09T00:46:54.790Z,10.97
2022-10-09T00:52:02.012Z,11.37
2022-10-09T00:57:05.016Z,11.97
2022-10-09T01:02:08.216Z,11.10
2022-10-09T01:07:40.148Z,11.17
2022-10-09T01:13:01.732Z,11.37
2022-10-09T01:18:16.933Z,11.40
2022-10-09T01:23:43.590Z,11.13
2022-10-09T01:28:54.233Z,10.73
2022-10-09T01:33:58.777Z,10.83
2022-10-09T01:39:04.027Z,10.43
2022-10-09T01:44:17.557Z,10.00
2022-10-09T01:49:32.242Z,9.90
2022-10-09T01:55:01.663Z,9.53
2022-10-09T02:00:09.810Z,9.47
2022-10-09T02:05:28.192Z,9.57
2022-10-09T02:10:35.431Z,9.27
2022-10-09T02:16:04.193Z,9.30
2022-10-09T02:21:21.006Z,9.33
2022-10-09T02:26:24.315Z,9.73
2022-10-09T02:31:34.000Z,8.87
2022-10-09T02:36:37.726Z,9.50
2022-10-09T02:41:40.426Z,9.73
2022-10-09T02:46:43.248Z,9.17
2022-10-09T02:51:45.979Z,9.17
2022-10-09T02:56:48.756Z,9.10
2022-10-09T03:01:51.474Z,8.90
2022-10-09T03:06:54.272Z,7.90
2022-10-09T03:11:56.975Z,8.70
2022-10-09T03:16:59.687Z,8.53
2022-10-09T03:22:02.395Z,8.13
2022-10-09T03:27:05.246Z,8.40
2022-10-09T03:32:08.103Z,8.87
2022-10-09T03:37:10.894Z,9.20
2022-10-09T03:42:13.665Z,8.53
2022-10-09T03:47:16.428Z,8.97
2022-10-09T03:52:19.160Z,8.47
2022-10-09T03:57:21.909Z,8.40
2022-10-09T04:02:24.805Z,8.40
2022-10-09T04:07:27.591Z,8.30
2022-10-09T04:12:30.349Z,7.63
2022-10-09T04:17:33.153Z,8.43
2022-10-09T04:22:38.353Z,8.37
2022-10-09T04:27:41.487Z,8.87
2022-10-09T04:32:44.222Z,8.60
2022-10-09T04:37:46.919Z,8.37
2022-10-09T04:42:49.829Z,7.63
2022-10-09T04:47:52.792Z,8.17
2022-10-09T04:52:55.476Z,7.87
2022-10-09T04:57:58.204Z,8.03
2022-10-09T05:03:00.999Z,7.10
2022-10-09T05:08:03.802Z,7.30
2022-10-09T05:13:06.898Z,8.03
2022-10-09T05:18:09.598Z,8.03
2022-10-09T05:23:12.289Z,7.83
2022-10-09T05:28:15.014Z,8.17
2022-10-09T05:33:17.956Z,8.13
2022-10-09T05:38:22.495Z,7.80
2022-10-09T05:43:31.808Z,8.27
2022-10-09T05:48:34.755Z,7.83
2022-10-09T05:53:37.737Z,9.37
2022-10-09T05:58:42.713Z,7.90
2022-10-09T06:03:50.563Z,8.83
2022-10-09T06:08:53.631Z,8.83
2022-10-09T06:13:58.092Z,8.70
2022-10-09T06:19:00.950Z,9.60
2022-10-09T06:24:05.750Z,10.17
2022-10-09T06:29:09.223Z,8.33
2022-10-09T06:34:11.996Z,9.33
2022-10-09T06:39:14.986Z,10.23
2022-10-09T06:44:17.987Z,10.67
2022-10-09T06:49:20.720Z,11.43
2022-10-09T06:54:23.736Z,10.73
2022-10-09T06:59:26.463Z,10.47
2022-10-09T07:04:29.237Z,11.80
2022-10-09T07:09:32.011Z,11.23
2022-10-09T07:14:34.707Z,10.17
2022-10-09T07:19:37.508Z,14.27
2022-10-09T07:24:40.333Z,11.33
2022-10-09T07:29:43.132Z,9.30
2022-10-09T07:34:45.876Z,9.57
2022-10-09T07:39:48.655Z,8.70
2022-10-09T07:44:51.384Z,9.17
2022-10-09T07:49:54.091Z,8.77
2022-10-09T07:54:56.867Z,8.40
2022-10-09T07:59:59.513Z,7.83
2022-10-09T08:05:02.264Z,8.27
2022-10-09T08:10:05.707Z,8.90
2022-10-09T08:15:09.086Z,9.33
2022-10-09T08:20:11.803Z,9.03
2022-10-09T08:25:14.667Z,9.17
2022-10-09T08:30:23.115Z,7.60
2022-10-09T08:35:34.741Z,6.73
2022-10-09T08:41:13.130Z,6.30
2022-10-09T08:46:23.947Z,6.27
2022-10-09T08:51:31.207Z,5.20
2022-10-09T08:56:34.936Z,5.77
2022-10-09T09:02:09.941Z,5.67
2022-10-09T09:07:31.181Z,5.00
2022-10-09T09:13:02.137Z,5.10
2022-10-09T09:18:33.033Z,3.50
2022-10-09T09:23:42.756Z,3.40
2022-10-09T09:28:47.324Z,2.53
2022-10-09T09:33:50.047Z,2.00
2022-10-09T09:39:44.255Z,1.50
2022-10-09T09:44:17.709Z,1.70
2022-10-09T09:49:28.969Z,1.73
2022-10-09T09:54:31.811Z,1.80
2022-10-09T09:59:38.526Z,1.80
2022-10-09T10:04:56.563Z,1.90
2022-10-09T10:10:22.504Z,1.77
2022-10-09T10:15:29.762Z,1.83
2022-10-09T10:20:43.174Z,1.80
2022-10-09T10:25:45.973Z,1.37
2022-10-09T10:30:50.689Z,1.40
2022-10-09T10:35:56.120Z,1.27
2022-10-09T10:41:20.109Z,1.50
2022-10-09T10:46:28.535Z,1.47
2022-10-09T10:51:52.164Z,1.00
2022-10-09T10:57:15.915Z,2.03
2022-10-09T11:02:40.969Z,1.30
2022-10-09T11:08:08.775Z,1.50
2022-10-09T11:13:32.447Z,1.20
2022-10-09T11:19:08.228Z,1.00
2022-10-09T11:24:14.018Z,1.10
2022-10-09T11:29:45.373Z,0.90
2022-10-09T11:35:12.272Z,1.20
2022-10-09T11:40:39.940Z,0.93
2022-10-09T11:46:04.410Z,1.07
2022-10-09T11:51:16.091Z,1.10
2022-10-09T11:56:25.276Z,1.00
2022-10-09T12:01:34.527Z,1.40
2022-10-09T12:06:54.251Z,1.10
2022-10-09T12:12:00.523Z,1.10
2022-10-09T12:17:15.032Z,1.20
2022-10-09T12:22:42.400Z,1.30
2022-10-09T12:27:46.339Z,1.20
2022-10-09T12:33:04.556Z,1.10
2022-10-09T12:38:28.629Z,1.40
2022-10-09T12:43:32.824Z,1.30
2022-10-09T12:48:40.026Z,1.47
2022-10-09T12:53:53.369Z,1.20
2022-10-09T12:58:57.634Z,0.90
2022-10-09T13:04:04.341Z,1.00
2022-10-09T13:09:18.223Z,1.00
2022-10-09T13:14:25.629Z,1.03
2022-10-09T13:19:33.537Z,1.10
2022-10-09T13:24:36.736Z,1.30
2022-10-09T13:29:39.405Z,0.90
2022-10-09T13:34:42.266Z,0.90
2022-10-09T13:39:45.015Z,0.90
2022-10-09T13:44:47.855Z,1.07
2022-10-09T13:49:51.056Z,1.10
2022-10-09T13:54:53.766Z,1.30
2022-10-09T13:59:56.547Z,1.70
2022-10-09T14:04:59.302Z,1.37
2022-10-09T14:10:02.096Z,1.30
2022-10-09T14:15:05.236Z,1.40
2022-10-09T14:20:08.325Z,1.47
2022-10-09T14:25:11.202Z,1.40
2022-10-09T14:30:14.125Z,1.60
2022-10-09T14:35:19.355Z,1.30
2022-10-09T14:40:23.356Z,1.40
2022-10-09T14:45:26.126Z,1.23
2022-10-09T14:50:28.986Z,1.33
2022-10-09T14:55:34.149Z,1.33
2022-10-09T15:00:36.889Z,1.30
2022-10-09T15:05:39.627Z,1.30
2022-10-09T15:10:43.485Z,1.20
2022-10-09T15:15:46.425Z,1.33
2022-10-09T15:20:49.204Z,1.50
2022-10-09T15:25:54.329Z,1.37
2022-10-09T15:31:01.066Z,1.13
2022-10-09T15:36:04.171Z,1.87
2022-10-09T15:41:07.008Z,2.63
2022-10-09T15:46:09.810Z,2.00
2022-10-09T15:51:15.782Z,1.50
2022-10-09T15:56:21.607Z,1.70
2022-10-09T16:01:24.719Z,3.77
2022-10-09T16:06:27.491Z,2.90
2022-10-09T16:11:30.319Z,3.00
2022-10-09T16:16:33.038Z,1.90
2022-10-09T16:21:35.780Z,1.40
2022-10-09T16:26:38.468Z,1.73
2022-10-09T16:31:41.184Z,1.37
2022-10-09T16:36:43.930Z,1.73
2022-10-09T16:41:46.638Z,1.70
2022-10-09T16:46:49.346Z,1.70
2022-10-09T16:51:52.116Z,1.90
2022-10-09T16:56:54.908Z,2.07
2022-10-09T17:01:57.631Z,1.87
2022-10-09T17:07:00.357Z,2.00
2022-10-09T17:12:09.785Z,2.30
2022-10-09T17:17:12.776Z,2.47
2022-10-09T17:22:15.503Z,2.33
2022-10-09T17:27:18.247Z,2.93
2022-10-09T17:32:21.007Z,2.50
2022-10-09T17:37:23.742Z,2.27
2022-10-09T17:42:26.556Z,2.90
2022-10-09T17:47:29.377Z,2.87
2022-10-09T17:52:32.219Z,2.83
2022-10-09T17:57:34.947Z,2.60
2022-10-09T18:02:37.630Z,3.03
2022-10-09T18:07:40.670Z,2.67
2022-10-09T18:12:43.756Z,2.90
2022-10-09T18:17:46.603Z,2.80
2022-10-09T18:22:49.491Z,2.73
2022-10-09T18:27:52.625Z,2.77
2022-10-09T18:32:55.866Z,3.00
2022-10-09T18:37:58.560Z,3.53
2022-10-09T18:43:01.559Z,3.43
2022-10-09T18:48:05.653Z,4.10
2022-10-09T18:53:08.698Z,4.70
2022-10-09T18:58:12.605Z,6.10
2022-10-09T19:03:15.431Z,6.10
2022-10-09T19:08:18.212Z,5.23
2022-10-09T19:13:20.932Z,4.47
2022-10-09T19:18:23.993Z,5.30
2022-10-09T19:23:26.797Z,6.17
2022-10-09T19:28:37.860Z,5.30
2022-10-09T19:33:41.829Z,5.00
2022-10-09T19:38:45.557Z,4.20
2022-10-09T19:43:48.339Z,4.10
2022-10-09T19:48:51.759Z,5.50
2022-10-09T19:53:55.018Z,4.90
2022-10-09T19:59:05.217Z,4.47
2022-10-09T20:04:10.071Z,4.17
2022-10-09T20:09:15.047Z,4.30
2022-10-09T20:14:17.785Z,4.27
2022-10-09T20:19:20.622Z,3.97
2022-10-09T20:24:23.510Z,3.90
2022-10-09T20:29:27.368Z,4.50
2022-10-09T20:34:30.247Z,4.40
2022-10-09T20:39:32.980Z,4.07
2022-10-09T20:44:35.784Z,4.33
2022-10-09T20:49:38.634Z,4.27
2022-10-09T20:54:41.437Z,4.07
2022-10-09T20:59:44.232Z,3.97
2022-10-09T21:04:47.042Z,4.10
2022-10-09T21:09:49.820Z,3.80
2022-10-09T21:14:52.588Z,4.30
2022-10-09T21:19:57.703Z,3.70
2022-10-09T21:25:00.527Z,3.70
2022-10-09T21:30:03.678Z,3.37
2022-10-09T21:35:06.695Z,2.83
2022-10-09T21:40:09.689Z,3.10
2022-10-09T21:45:13.040Z,3.57
2022-10-09T21:50:15.789Z,3.63
2022-10-09T21:55:18.579Z,3.73
2022-10-09T22:00:21.869Z,4.00
2022-10-09T22:05:24.642Z,3.70
2022-10-09T22:10:27.390Z,4.20
2022-10-09T22:15:30.067Z,3.50
2022-10-09T22:20:32.782Z,4.23
2022-10-09T22:25:36.180Z,3.80
2022-10-09T22:30:38.916Z,3.87
2022-10-09T22:35:42.449Z,4.23
2022-10-09T22:40:47.225Z,3.70
2022-10-09T22:45:50.105Z,3.50
2022-10-09T22:50:52.843Z,3.00
2022-10-09T22:55:55.545Z,3.10
2022-10-09T23:01:01.653Z,3.00
2022-10-09T23:06:10.199Z,3.37
2022-10-09T23:11:13.736Z,2.90
2022-10-09T23:16:16.747Z,2.80
2022-10-09T23:21:21.771Z,3.23
2022-10-09T23:26:26.977Z,2.97
2022-10-09T23:31:30.577Z,3.10
2022-10-09T23:36:33.517Z,2.77
2022-10-09T23:41:36.377Z,3.23
2022-10-09T23:46:39.947Z,3.20
2022-10-09T23:51:42.676Z,3.30
2022-10-09T23:56:45.378Z,3.07
